sensor_id;sensor_type;location;lat;lon;timestamp;P1;durP1;ratioP1;P2;durP2;ratioP2
17197;SDS011;8715;51.010;6.812;2024-01-25T05:57:27;759.20;;;721.28;;
17197;SDS011;8715;51.010;6.812;2024-01-25T09:24:18;789.90;;;748.83;;
17197;SDS011;8715;51.010;6.812;2024-01-25T11:36:09;823.95;;;777.17;;
17197;SDS011;8715;51.010;6.812;2024-01-25T11:38:55;829.13;;;780.92;;
17197;SDS011;8715;51.010;6.812;2024-01-25T11:41:41;829.90;;;782.33;;
17197;SDS011;8715;51.010;6.812;2024-01-25T11:44:26;834.20;;;786.65;;
17197;SDS011;8715;51.010;6.812;2024-01-25T11:47:11;829.30;;;781.65;;
17197;SDS011;8715;51.010;6.812;2024-01-25T11:49:56;837.47;;;788.45;;
17197;SDS011;8715;51.010;6.812;2024-01-25T11:52:43;843.72;;;794.15;;
17197;SDS011;8715;51.010;6.812;2024-01-25T11:55:28;843.58;;;793.40;;
17197;SDS011;8715;51.010;6.812;2024-01-25T11:58:13;836.95;;;787.92;;
17197;SDS011;8715;51.010;6.812;2024-01-25T12:00:58;838.08;;;788.40;;
17197;SDS011;8715;51.010;6.812;2024-01-25T12:03:43;839.30;;;790.42;;
17197;SDS011;8715;51.010;6.812;2024-01-25T12:06:28;834.33;;;785.33;;
17197;SDS011;8715;51.010;6.812;2024-01-25T12:09:15;836.00;;;786.90;;
17197;SDS011;8715;51.010;6.812;2024-01-25T12:12:00;848.88;;;798.33;;
17197;SDS011;8715;51.010;6.812;2024-01-25T12:14:46;843.30;;;793.95;;
17197;SDS011;8715;51.010;6.812;2024-01-25T12:17:31;845.67;;;796.00;;
17197;SDS011;8715;51.010;6.812;2024-01-25T12:20:17;851.10;;;800.08;;
17197;SDS011;8715;51.010;6.812;2024-01-25T12:23:03;836.15;;;787.17;;
17197;SDS011;8715;51.010;6.812;2024-01-25T12:25:50;845.05;;;794.58;;
17197;SDS011;8715;51.010;6.812;2024-01-25T12:28:36;832.40;;;783.67;;
17197;SDS011;8715;51.010;6.812;2024-01-25T12:31:21;841.40;;;791.30;;
17197;SDS011;8715;51.010;6.812;2024-01-25T12:34:11;844.67;;;794.63;;
17197;SDS011;8715;51.010;6.812;2024-01-25T12:36:57;839.65;;;790.40;;
17197;SDS011;8715;51.010;6.812;2024-01-25T12:39:43;847.72;;;796.53;;
17197;SDS011;8715;51.010;6.812;2024-01-25T12:42:29;838.88;;;789.67;;
17197;SDS011;8715;51.010;6.812;2024-01-25T12:45:15;851.45;;;801.67;;
17197;SDS011;8715;51.010;6.812;2024-01-25T12:48:00;848.50;;;798.60;;
17197;SDS011;8715;51.010;6.812;2024-01-25T12:50:46;854.30;;;803.50;;
17197;SDS011;8715;51.010;6.812;2024-01-25T12:53:31;845.80;;;796.30;;
17197;SDS011;8715;51.010;6.812;2024-01-25T12:56:16;849.00;;;799.15;;
17197;SDS011;8715;51.010;6.812;2024-01-25T12:59:03;842.67;;;792.97;;
17197;SDS011;8715;51.010;6.812;2024-01-25T13:01:49;845.65;;;796.03;;
17197;SDS011;8715;51.010;6.812;2024-01-25T13:04:34;845.33;;;795.67;;
17197;SDS011;8715;51.010;6.812;2024-01-25T13:07:19;841.42;;;791.60;;
17197;SDS011;8715;51.010;6.812;2024-01-25T13:10:05;850.55;;;799.67;;
17197;SDS011;8715;51.010;6.812;2024-01-25T13:12:50;848.60;;;797.90;;
17197;SDS011;8715;51.010;6.812;2024-01-25T13:15:37;853.42;;;801.78;;
17197;SDS011;8715;51.010;6.812;2024-01-25T13:18:22;849.10;;;798.30;;
17197;SDS011;8715;51.010;6.812;2024-01-25T13:21:07;853.97;;;803.03;;
17197;SDS011;8715;51.010;6.812;2024-01-25T13:23:52;846.25;;;795.70;;
17197;SDS011;8715;51.010;6.812;2024-01-25T13:26:38;850.72;;;800.05;;
17197;SDS011;8715;51.010;6.812;2024-01-25T13:29:23;845.53;;;795.58;;
17197;SDS011;8715;51.010;6.812;2024-01-25T13:32:09;846.15;;;796.05;;
17197;SDS011;8715;51.010;6.812;2024-01-25T13:34:54;854.33;;;802.97;;
17197;SDS011;8715;51.010;6.812;2024-01-25T13:37:39;854.92;;;803.72;;
17197;SDS011;8715;51.010;6.812;2024-01-25T13:40:24;852.95;;;801.72;;
17197;SDS011;8715;51.010;6.812;2024-01-25T13:43:10;846.25;;;796.50;;
17197;SDS011;8715;51.010;6.812;2024-01-25T13:45:55;845.78;;;795.42;;
17197;SDS011;8715;51.010;6.812;2024-01-25T13:48:42;845.47;;;795.05;;
17197;SDS011;8715;51.010;6.812;2024-01-25T13:51:27;846.88;;;796.17;;
17197;SDS011;8715;51.010;6.812;2024-01-25T13:54:12;842.55;;;792.95;;
17197;SDS011;8715;51.010;6.812;2024-01-25T13:56:57;838.53;;;789.58;;
17197;SDS011;8715;51.010;6.812;2024-01-25T13:59:42;848.22;;;798.42;;
17197;SDS011;8715;51.010;6.812;2024-01-25T14:02:28;844.35;;;794.30;;
17197;SDS011;8715;51.010;6.812;2024-01-25T14:05:14;848.75;;;798.45;;
17197;SDS011;8715;51.010;6.812;2024-01-25T14:07:59;848.17;;;797.97;;
17197;SDS011;8715;51.010;6.812;2024-01-25T14:10:45;844.67;;;794.60;;
17197;SDS011;8715;51.010;6.812;2024-01-25T14:13:30;842.47;;;793.25;;
17197;SDS011;8715;51.010;6.812;2024-01-25T14:16:15;840.05;;;790.53;;
17197;SDS011;8715;51.010;6.812;2024-01-25T14:19:01;846.10;;;796.25;;
17197;SDS011;8715;51.010;6.812;2024-01-25T14:21:48;842.38;;;793.08;;
17197;SDS011;8715;51.010;6.812;2024-01-25T14:24:34;846.85;;;796.65;;
17197;SDS011;8715;51.010;6.812;2024-01-25T14:27:19;844.60;;;794.67;;
17197;SDS011;8715;51.010;6.812;2024-01-25T14:30:05;842.28;;;792.88;;
17197;SDS011;8715;51.010;6.812;2024-01-25T14:32:50;844.40;;;795.53;;
17197;SDS011;8715;51.010;6.812;2024-01-25T14:35:35;846.00;;;796.70;;
17197;SDS011;8715;51.010;6.812;2024-01-25T14:38:22;840.05;;;791.00;;
17197;SDS011;8715;51.010;6.812;2024-01-25T14:41:07;843.50;;;793.80;;
17197;SDS011;8715;51.010;6.812;2024-01-25T14:43:53;847.60;;;798.33;;
17197;SDS011;8715;51.010;6.812;2024-01-25T14:46:38;847.08;;;797.47;;
17197;SDS011;8715;51.010;6.812;2024-01-25T14:49:23;840.42;;;791.03;;
17197;SDS011;8715;51.010;6.812;2024-01-25T14:52:08;846.38;;;796.90;;
17197;SDS011;8715;51.010;6.812;2024-01-25T14:54:55;836.50;;;787.83;;
17197;SDS011;8715;51.010;6.812;2024-01-25T14:57:40;850.97;;;801.03;;
17197;SDS011;8715;51.010;6.812;2024-01-25T15:00:25;843.33;;;795.00;;
17197;SDS011;8715;51.010;6.812;2024-01-25T15:03:10;839.38;;;791.60;;
17197;SDS011;8715;51.010;6.812;2024-01-25T15:05:55;840.97;;;792.70;;
17197;SDS011;8715;51.010;6.812;2024-01-25T15:08:40;833.40;;;785.72;;
17197;SDS011;8715;51.010;6.812;2024-01-25T15:11:26;838.05;;;789.85;;
17197;SDS011;8715;51.010;6.812;2024-01-25T15:14:12;834.70;;;786.88;;
17197;SDS011;8715;51.010;6.812;2024-01-25T15:16:57;836.70;;;788.72;;
17197;SDS011;8715;51.010;6.812;2024-01-25T15:19:43;832.35;;;785.00;;
17197;SDS011;8715;51.010;6.812;2024-01-25T15:22:28;844.15;;;795.53;;
17197;SDS011;8715;51.010;6.812;2024-01-25T15:25:14;832.05;;;784.85;;
17197;SDS011;8715;51.010;6.812;2024-01-25T15:28:01;833.65;;;786.35;;
17197;SDS011;8715;51.010;6.812;2024-01-25T15:30:46;840.17;;;792.50;;
17197;SDS011;8715;51.010;6.812;2024-01-25T15:33:32;828.45;;;781.03;;
17197;SDS011;8715;51.010;6.812;2024-01-25T15:36:17;841.92;;;793.75;;
17197;SDS011;8715;51.010;6.812;2024-01-25T15:39:04;837.65;;;790.08;;
17197;SDS011;8715;51.010;6.812;2024-01-25T15:41:49;833.67;;;786.13;;
17197;SDS011;8715;51.010;6.812;2024-01-25T15:44:38;841.53;;;793.92;;
17197;SDS011;8715;51.010;6.812;2024-01-25T15:47:23;842.25;;;793.63;;
17197;SDS011;8715;51.010;6.812;2024-01-25T15:50:08;831.53;;;784.47;;
17197;SDS011;8715;51.010;6.812;2024-01-25T15:52:56;837.03;;;789.20;;
17197;SDS011;8715;51.010;6.812;2024-01-25T15:55:41;834.92;;;787.05;;
17197;SDS011;8715;51.010;6.812;2024-01-25T15:58:27;828.08;;;781.00;;
17197;SDS011;8715;51.010;6.812;2024-01-25T16:01:13;834.08;;;786.95;;
17197;SDS011;8715;51.010;6.812;2024-01-25T16:03:58;834.10;;;786.78;;
17197;SDS011;8715;51.010;6.812;2024-01-25T16:06:43;829.38;;;782.90;;
17197;SDS011;8715;51.010;6.812;2024-01-25T16:09:28;833.03;;;786.58;;
17197;SDS011;8715;51.010;6.812;2024-01-25T16:12:13;824.00;;;777.42;;
17197;SDS011;8715;51.010;6.812;2024-01-25T16:14:58;834.10;;;787.38;;
17197;SDS011;8715;51.010;6.812;2024-01-25T16:17:45;830.72;;;784.75;;
17197;SDS011;8715;51.010;6.812;2024-01-25T16:20:30;835.72;;;788.38;;
17197;SDS011;8715;51.010;6.812;2024-01-25T16:23:15;829.75;;;783.63;;
17197;SDS011;8715;51.010;6.812;2024-01-25T16:26:00;825.53;;;779.65;;
17197;SDS011;8715;51.010;6.812;2024-01-25T16:28:45;827.17;;;781.20;;
17197;SDS011;8715;51.010;6.812;2024-01-25T16:31:31;825.85;;;778.88;;
17197;SDS011;8715;51.010;6.812;2024-01-25T16:34:17;827.03;;;779.72;;
17197;SDS011;8715;51.010;6.812;2024-01-25T16:37:02;833.67;;;786.75;;
17197;SDS011;8715;51.010;6.812;2024-01-25T16:39:48;831.60;;;785.53;;
17197;SDS011;8715;51.010;6.812;2024-01-25T16:42:33;829.78;;;783.55;;
17197;SDS011;8715;51.010;6.812;2024-01-25T16:45:18;831.10;;;785.05;;
17197;SDS011;8715;51.010;6.812;2024-01-25T16:48:04;827.95;;;781.80;;
17197;SDS011;8715;51.010;6.812;2024-01-25T16:50:51;826.45;;;779.50;;
17197;SDS011;8715;51.010;6.812;2024-01-25T16:53:36;827.17;;;781.08;;
17197;SDS011;8715;51.010;6.812;2024-01-25T16:56:21;827.30;;;781.90;;
17197;SDS011;8715;51.010;6.812;2024-01-25T16:59:07;826.40;;;780.13;;
17197;SDS011;8715;51.010;6.812;2024-01-25T17:01:52;823.33;;;777.88;;
17197;SDS011;8715;51.010;6.812;2024-01-25T17:04:37;833.92;;;786.90;;
17197;SDS011;8715;51.010;6.812;2024-01-25T17:07:23;827.40;;;781.10;;
17197;SDS011;8715;51.010;6.812;2024-01-25T17:10:09;816.42;;;771.53;;
17197;SDS011;8715;51.010;6.812;2024-01-25T17:12:54;822.22;;;776.13;;
17197;SDS011;8715;51.010;6.812;2024-01-25T17:15:39;819.60;;;774.47;;
17197;SDS011;8715;51.010;6.812;2024-01-25T17:18:24;821.88;;;776.58;;
17197;SDS011;8715;51.010;6.812;2024-01-25T17:21:10;824.00;;;779.25;;
17197;SDS011;8715;51.010;6.812;2024-01-25T17:23:56;827.83;;;782.42;;
17197;SDS011;8715;51.010;6.812;2024-01-25T17:26:42;826.33;;;780.65;;
17197;SDS011;8715;51.010;6.812;2024-01-25T17:29:27;821.72;;;776.00;;
17197;SDS011;8715;51.010;6.812;2024-01-25T17:32:12;822.58;;;777.72;;
17197;SDS011;8715;51.010;6.812;2024-01-25T17:34:58;826.95;;;780.90;;
17197;SDS011;8715;51.010;6.812;2024-01-25T17:37:43;823.58;;;777.88;;
17197;SDS011;8715;51.010;6.812;2024-01-25T17:40:29;819.05;;;774.17;;
17197;SDS011;8715;51.010;6.812;2024-01-25T17:43:14;819.10;;;774.22;;
17197;SDS011;8715;51.010;6.812;2024-01-25T17:45:59;826.30;;;781.30;;
17197;SDS011;8715;51.010;6.812;2024-01-25T17:48:44;812.35;;;768.45;;
17197;SDS011;8715;51.010;6.812;2024-01-25T17:51:29;821.88;;;776.63;;
17197;SDS011;8715;51.010;6.812;2024-01-25T17:54:15;817.63;;;773.10;;
17197;SDS011;8715;51.010;6.812;2024-01-25T17:57:01;823.85;;;778.15;;
17197;SDS011;8715;51.010;6.812;2024-01-25T17:59:46;813.58;;;769.15;;
17197;SDS011;8715;51.010;6.812;2024-01-25T18:02:31;812.05;;;768.15;;
17197;SDS011;8715;51.010;6.812;2024-01-25T18:05:16;812.55;;;768.72;;
17197;SDS011;8715;51.010;6.812;2024-01-25T18:08:02;816.70;;;772.60;;
17197;SDS011;8715;51.010;6.812;2024-01-25T18:10:47;812.63;;;768.03;;
17197;SDS011;8715;51.010;6.812;2024-01-25T18:13:35;819.38;;;774.83;;
17197;SDS011;8715;51.010;6.812;2024-01-25T18:16:20;816.85;;;772.72;;
17197;SDS011;8715;51.010;6.812;2024-01-25T18:19:06;819.83;;;775.15;;
17197;SDS011;8715;51.010;6.812;2024-01-25T18:21:51;812.72;;;768.92;;
17197;SDS011;8715;51.010;6.812;2024-01-25T18:24:36;811.13;;;766.15;;
17197;SDS011;8715;51.010;6.812;2024-01-25T18:27:21;804.90;;;761.72;;
17197;SDS011;8715;51.010;6.812;2024-01-25T18:30:08;816.20;;;772.13;;
17197;SDS011;8715;51.010;6.812;2024-01-25T18:32:53;801.97;;;759.38;;
17197;SDS011;8715;51.010;6.812;2024-01-25T18:35:38;804.10;;;761.47;;
17197;SDS011;8715;51.010;6.812;2024-01-25T18:38:23;799.55;;;757.45;;
17197;SDS011;8715;51.010;6.812;2024-01-25T18:41:08;800.40;;;756.88;;
17197;SDS011;8715;51.010;6.812;2024-01-25T18:43:54;806.60;;;763.45;;
17197;SDS011;8715;51.010;6.812;2024-01-25T18:46:40;810.60;;;767.67;;
17197;SDS011;8715;51.010;6.812;2024-01-25T18:49:26;798.78;;;756.67;;
17197;SDS011;8715;51.010;6.812;2024-01-25T18:52:11;807.85;;;765.20;;
17197;SDS011;8715;51.010;6.812;2024-01-25T18:54:57;804.83;;;762.45;;
17197;SDS011;8715;51.010;6.812;2024-01-25T18:57:44;812.78;;;769.75;;
17197;SDS011;8715;51.010;6.812;2024-01-25T19:00:30;809.00;;;766.42;;
17197;SDS011;8715;51.010;6.812;2024-01-25T19:03:34;804.65;;;762.42;;
17197;SDS011;8715;51.010;6.812;2024-01-25T19:06:19;800.10;;;756.88;;
17197;SDS011;8715;51.010;6.812;2024-01-25T19:09:05;802.50;;;760.33;;
17197;SDS011;8715;51.010;6.812;2024-01-25T19:11:50;804.92;;;762.88;;
17197;SDS011;8715;51.010;6.812;2024-01-25T19:14:35;803.28;;;761.28;;
17197;SDS011;8715;51.010;6.812;2024-01-25T19:17:21;809.15;;;766.13;;
17197;SDS011;8715;51.010;6.812;2024-01-25T19:20:07;811.00;;;768.38;;
17197;SDS011;8715;51.010;6.812;2024-01-25T19:22:53;804.80;;;762.17;;
17197;SDS011;8715;51.010;6.812;2024-01-25T19:25:38;801.00;;;759.60;;
17197;SDS011;8715;51.010;6.812;2024-01-25T19:28:23;809.10;;;766.08;;
17197;SDS011;8715;51.010;6.812;2024-01-25T19:31:09;816.72;;;773.13;;
17197;SDS011;8715;51.010;6.812;2024-01-25T19:33:54;807.15;;;764.38;;
17197;SDS011;8715;51.010;6.812;2024-01-25T19:36:41;803.97;;;761.17;;
17197;SDS011;8715;51.010;6.812;2024-01-25T19:39:27;806.17;;;763.55;;
17197;SDS011;8715;51.010;6.812;2024-01-25T19:42:12;803.67;;;761.50;;
17197;SDS011;8715;51.010;6.812;2024-01-25T19:44:57;813.88;;;770.90;;
17197;SDS011;8715;51.010;6.812;2024-01-25T19:47:42;807.92;;;765.92;;
17197;SDS011;8715;51.010;6.812;2024-01-25T19:50:27;804.95;;;762.38;;
17197;SDS011;8715;51.010;6.812;2024-01-25T19:53:14;810.58;;;768.10;;
17197;SDS011;8715;51.010;6.812;2024-01-25T19:55:59;808.47;;;765.85;;
17197;SDS011;8715;51.010;6.812;2024-01-25T19:58:44;809.95;;;767.47;;
17197;SDS011;8715;51.010;6.812;2024-01-25T20:01:30;805.50;;;763.17;;
17197;SDS011;8715;51.010;6.812;2024-01-25T20:04:15;797.20;;;755.22;;
17197;SDS011;8715;51.010;6.812;2024-01-25T20:07:00;812.72;;;769.58;;
17197;SDS011;8715;51.010;6.812;2024-01-25T20:09:48;805.58;;;763.25;;
17197;SDS011;8715;51.010;6.812;2024-01-25T20:12:32;803.63;;;761.55;;
17197;SDS011;8715;51.010;6.812;2024-01-25T20:15:17;799.90;;;757.50;;
17197;SDS011;8715;51.010;6.812;2024-01-25T20:18:03;809.40;;;766.17;;
17197;SDS011;8715;51.010;6.812;2024-01-25T20:20:48;796.45;;;755.53;;
17197;SDS011;8715;51.010;6.812;2024-01-25T20:23:33;806.78;;;764.65;;
17197;SDS011;8715;51.010;6.812;2024-01-25T20:26:20;805.90;;;762.83;;
17197;SDS011;8715;51.010;6.812;2024-01-25T20:29:06;810.92;;;767.38;;
17197;SDS011;8715;51.010;6.812;2024-01-25T20:31:51;807.10;;;765.00;;
17197;SDS011;8715;51.010;6.812;2024-01-25T20:34:36;793.97;;;752.75;;
17197;SDS011;8715;51.010;6.812;2024-01-25T20:37:21;801.95;;;760.17;;
17197;SDS011;8715;51.010;6.812;2024-01-25T20:40:07;797.13;;;755.72;;
17197;SDS011;8715;51.010;6.812;2024-01-25T20:42:53;806.92;;;765.22;;
17197;SDS011;8715;51.010;6.812;2024-01-25T20:45:39;805.40;;;761.97;;
17197;SDS011;8715;51.010;6.812;2024-01-25T20:48:23;799.05;;;757.60;;
17197;SDS011;8715;51.010;6.812;2024-01-25T20:51:09;801.50;;;759.88;;
17197;SDS011;8715;51.010;6.812;2024-01-25T20:53:53;802.28;;;760.35;;
17197;SDS011;8715;51.010;6.812;2024-01-25T20:56:39;812.80;;;769.60;;
17197;SDS011;8715;51.010;6.812;2024-01-25T20:59:25;802.25;;;760.15;;
17197;SDS011;8715;51.010;6.812;2024-01-25T21:02:11;814.33;;;771.22;;
17197;SDS011;8715;51.010;6.812;2024-01-25T21:04:56;812.03;;;769.42;;
17197;SDS011;8715;51.010;6.812;2024-01-25T21:07:41;811.97;;;768.75;;
17197;SDS011;8715;51.010;6.812;2024-01-25T21:10:27;803.83;;;761.72;;
17197;SDS011;8715;51.010;6.812;2024-01-25T21:13:12;804.80;;;762.70;;
17197;SDS011;8715;51.010;6.812;2024-01-25T21:15:58;802.28;;;761.08;;
17197;SDS011;8715;51.010;6.812;2024-01-25T21:18:43;812.33;;;770.00;;
17197;SDS011;8715;51.010;6.812;2024-01-25T21:21:29;806.22;;;764.53;;
17197;SDS011;8715;51.010;6.812;2024-01-25T21:24:14;807.72;;;765.45;;
17197;SDS011;8715;51.010;6.812;2024-01-25T21:26:59;811.95;;;769.45;;
17197;SDS011;8715;51.010;6.812;2024-01-25T21:29:44;810.60;;;767.95;;
17197;SDS011;8715;51.010;6.812;2024-01-25T21:32:30;810.92;;;768.33;;
17197;SDS011;8715;51.010;6.812;2024-01-25T21:35:15;815.53;;;773.08;;
17197;SDS011;8715;51.010;6.812;2024-01-25T21:38:00;811.80;;;769.20;;
17197;SDS011;8715;51.010;6.812;2024-01-25T21:40:45;805.70;;;763.47;;
17197;SDS011;8715;51.010;6.812;2024-01-25T21:43:30;809.38;;;766.85;;
17197;SDS011;8715;51.010;6.812;2024-01-25T21:46:15;814.50;;;771.70;;
17197;SDS011;8715;51.010;6.812;2024-01-25T21:49:01;801.67;;;760.00;;
17197;SDS011;8715;51.010;6.812;2024-01-25T21:51:46;807.15;;;764.80;;
17197;SDS011;8715;51.010;6.812;2024-01-25T21:54:31;800.78;;;758.53;;
17197;SDS011;8715;51.010;6.812;2024-01-25T21:57:17;810.45;;;768.10;;
17197;SDS011;8715;51.010;6.812;2024-01-25T22:00:03;816.30;;;772.58;;
17197;SDS011;8715;51.010;6.812;2024-01-25T22:02:48;810.22;;;767.13;;
17197;SDS011;8715;51.010;6.812;2024-01-25T22:05:35;801.35;;;759.33;;
17197;SDS011;8715;51.010;6.812;2024-01-25T22:08:20;806.00;;;764.05;;
17197;SDS011;8715;51.010;6.812;2024-01-25T22:11:05;804.20;;;761.92;;
17197;SDS011;8715;51.010;6.812;2024-01-25T22:13:50;813.45;;;770.08;;
17197;SDS011;8715;51.010;6.812;2024-01-25T22:16:37;808.30;;;765.50;;
17197;SDS011;8715;51.010;6.812;2024-01-25T22:19:22;809.75;;;766.95;;
17197;SDS011;8715;51.010;6.812;2024-01-25T22:22:08;806.17;;;764.00;;
17197;SDS011;8715;51.010;6.812;2024-01-25T22:24:53;806.20;;;763.80;;
17197;SDS011;8715;51.010;6.812;2024-01-25T22:27:38;806.67;;;764.50;;
17197;SDS011;8715;51.010;6.812;2024-01-25T22:30:23;809.80;;;767.38;;
17197;SDS011;8715;51.010;6.812;2024-01-25T22:33:08;800.80;;;759.08;;
17197;SDS011;8715;51.010;6.812;2024-01-25T22:35:53;803.38;;;761.45;;
17197;SDS011;8715;51.010;6.812;2024-01-25T22:38:40;807.40;;;765.20;;
17197;SDS011;8715;51.010;6.812;2024-01-25T22:41:25;804.05;;;762.65;;
17197;SDS011;8715;51.010;6.812;2024-01-25T22:44:10;805.75;;;763.42;;
17197;SDS011;8715;51.010;6.812;2024-01-25T22:46:55;799.10;;;757.67;;
17197;SDS011;8715;51.010;6.812;2024-01-25T22:49:41;810.63;;;767.88;;
17197;SDS011;8715;51.010;6.812;2024-01-25T22:52:25;806.75;;;764.70;;
17197;SDS011;8715;51.010;6.812;2024-01-25T22:55:12;811.33;;;769.13;;
17197;SDS011;8715;51.010;6.812;2024-01-25T22:57:57;805.03;;;763.03;;
17197;SDS011;8715;51.010;6.812;2024-01-25T23:00:42;805.05;;;762.78;;
17197;SDS011;8715;51.010;6.812;2024-01-25T23:03:30;799.05;;;757.47;;
17197;SDS011;8715;51.010;6.812;2024-01-25T23:06:15;805.60;;;764.13;;
17197;SDS011;8715;51.010;6.812;2024-01-25T23:09:00;804.83;;;762.80;;
17197;SDS011;8715;51.010;6.812;2024-01-25T23:11:46;803.08;;;761.53;;
17197;SDS011;8715;51.010;6.812;2024-01-25T23:14:33;801.28;;;759.78;;
17197;SDS011;8715;51.010;6.812;2024-01-25T23:17:18;803.70;;;761.60;;
17197;SDS011;8715;51.010;6.812;2024-01-25T23:20:04;808.45;;;766.33;;
17197;SDS011;8715;51.010;6.812;2024-01-25T23:22:50;803.67;;;761.83;;
17197;SDS011;8715;51.010;6.812;2024-01-25T23:25:35;815.58;;;772.83;;
17197;SDS011;8715;51.010;6.812;2024-01-25T23:28:22;809.42;;;767.05;;
17197;SDS011;8715;51.010;6.812;2024-01-25T23:31:07;813.78;;;771.00;;
17197;SDS011;8715;51.010;6.812;2024-01-25T23:33:52;803.33;;;761.28;;
17197;SDS011;8715;51.010;6.812;2024-01-25T23:36:38;806.97;;;764.90;;
17197;SDS011;8715;51.010;6.812;2024-01-25T23:39:23;795.83;;;754.58;;
17197;SDS011;8715;51.010;6.812;2024-01-25T23:42:08;800.97;;;759.92;;
17197;SDS011;8715;51.010;6.812;2024-01-25T23:44:54;806.97;;;765.00;;
17197;SDS011;8715;51.010;6.812;2024-01-25T23:47:39;808.03;;;766.00;;
17197;SDS011;8715;51.010;6.812;2024-01-25T23:50:24;804.47;;;762.55;;
17197;SDS011;8715;51.010;6.812;2024-01-25T23:53:10;810.40;;;767.90;;
17197;SDS011;8715;51.010;6.812;2024-01-25T23:55:55;800.55;;;758.72;;
17197;SDS011;8715;51.010;6.812;2024-01-25T23:58:40;810.13;;;767.72;;
